Flight Track Log - Related Links

Times and Time Zones

All times are in EDT time to prevent confusion due to time zone crossing. See the EJA743 flight status page for this flight to view local times or setup timezone preferences in your user account.

Time Position Orientation Groundspeed Altitude Reporting Facility
EDT Latitude Longitude Course Direction KTS MPH feet Rate Location/Type
Mon 09:33:15 AM 40.8437 -74.0981 328° Northwest  Level FlightAware Approximate
Mon 09:34:15 AM 40.8333 -74.2512 33° Northeast  Level FlightAware Approximate
Mon 09:35:16 AM 40.9294 -74.1686 276° West 239 275 6,100  Level New York Center
Mon 09:36:17 AM 40.9369 -74.2706 271° West 263 303 9,000 2,083 Climbing New York Center
Mon 09:37:17 AM 40.9381 -74.3694 259° West 295 339 10,300 1,932 Climbing New York Center
Mon 09:38:15 AM 40.9247 -74.4619 257° West 322 371 12,800 2,746 Climbing New York Center
Mon 09:39:15 AM 40.9019 -74.5900 257° West 335 386 15,700 1,983 Climbing New York Center
Mon 09:40:16 AM 40.8817 -74.7039 256° West 340 391 16,800 1,091 Climbing New York Center
Mon 09:41:16 AM 40.8558 -74.8453 255° West 359 413 17,900 1,388 Climbing New York Center
Mon 09:42:17 AM 40.8308 -74.9697 258° West 359 413 19,600 1,785 Climbing New York Center
Mon 09:43:17 AM 40.8092 -75.1028 259° West 364 419 21,500 1,950 Climbing New York Center
Mon 09:44:17 AM 40.7900 -75.2278 257° West 379 436 23,500 1,678 Climbing New York Center
Mon 09:45:15 AM 40.7658 -75.3658 246° West 384 442 24,800 1,475 Climbing New York Center
Mon 09:46:15 AM 40.7211 -75.4997 245° Southwest 391 450 26,400 1,525 Climbing New York Center
Mon 09:47:17 AM 40.6739 -75.6333 244° Southwest 402 463 27,900 1,377 Climbing New York Center
Mon 09:48:17 AM 40.6225 -75.7692 244° Southwest 413 475 29,200 992 Climbing New York Center
Mon 09:49:18 AM 40.5706 -75.9075 241° Southwest 420 483 29,900 661 Climbing New York Center
Mon 09:50:15 AM 40.5125 -76.0478 244° Southwest 431 496 30,500 661 Climbing New York Center
Mon 09:51:16 AM 40.4581 -76.1911 243° Southwest 437 503 31,200 893 Climbing New York Center
Mon 09:52:16 AM 40.4014 -76.3339 248° West 443 510 32,300 1,050 Climbing New York Center
Mon 09:53:16 AM 40.3569 -76.4772 258° West 438 504 33,300 857 Climbing New York Center
Mon 09:54:15 AM 40.3331 -76.6250 257° West 428 493 34,000 350 Climbing New York Center
Mon 09:55:16 AM 40.3067 -76.7753 258° West 421 484 34,000  Level New York Center
Mon 09:56:17 AM 40.2819 -76.9311 258° West 432 497 34,000  Level New York Center
Mon 09:57:18 AM 40.2572 -77.0867 258° West 438 504 34,000  Level New York Center
Mon 09:58:18 AM 40.2319 -77.2422 259° West 444 511 34,000  Level New York Center
Mon 10:00:12 AM 40.1872 -77.5528 258° West 431 496 34,000  Level Cleveland Center
Mon 10:01:12 AM 40.1622 -77.7086 258° West 431 496 34,000  Level Cleveland Center
Mon 10:02:12 AM 40.1367 -77.8619 271° West 431 496 34,000  Level Cleveland Center
Mon 10:03:12 AM 40.1383 -78.0194 271° West 431 496 34,000  Level Cleveland Center
Mon 10:04:12 AM 40.1397 -78.1769 271° West 431 496 34,000  Level Cleveland Center
Mon 10:05:12 AM 40.1408 -78.3289 270° West 424 488 34,000  Level Cleveland Center
Mon 10:06:12 AM 40.1417 -78.4864 269° West 424 488 34,000  Level Cleveland Center
Mon 10:07:12 AM 40.1403 -78.6414 272° West 424 488 34,000  Level Cleveland Center
Mon 10:08:12 AM 40.1450 -78.8014 270° West 435 501 34,000  Level Cleveland Center
Mon 10:09:12 AM 40.1453 -78.9561 270° West 435 501 34,000  Level Cleveland Center
Mon 10:10:12 AM 40.1453 -79.1111 272° West 435 501 34,000  Level Cleveland Center
Mon 10:11:12 AM 40.1492 -79.2631 271° West 435 501 34,000  Level Cleveland Center
Mon 10:12:12 AM 40.1508 -79.4178 272° West 435 501 34,000  Level Cleveland Center
Mon 10:13:12 AM 40.1544 -79.5861 271° West 425 489 34,000 450 Level Cleveland Center
Mon 10:14:12 AM 40.1558 -79.7328 273° West 420 483 34,900 750 Climbing Cleveland Center
Mon 10:15:12 AM 40.1608 -79.8822 272° West 415 478 35,500 550 Climbing Cleveland Center
Mon 10:16:12 AM 40.1639 -80.0289 271° West 415 478 36,000 250 Climbing Cleveland Center
Mon 10:17:12 AM 40.1664 -80.1783 271° West 415 478 36,000  Level Cleveland Center
Mon 10:18:12 AM 40.1689 -80.3303 271° West 415 478 36,000  Level Cleveland Center
Mon 10:19:12 AM 40.1714 -80.4797 271° West 420 483 36,000  Level Cleveland Center
Mon 10:20:12 AM 40.1733 -80.6319 270° West 420 483 36,000  Level Cleveland Center
Mon 10:21:12 AM 40.1733 -80.7869 272° West 420 483 36,000  Level Cleveland Center
Mon 10:22:12 AM 40.1769 -80.9364 269° West 420 483 36,000  Level Cleveland Center
Mon 10:23:12 AM 40.1744 -81.0911 269° West 420 483 36,000  Level Cleveland Center
Mon 10:25:35 AM 40.1678 -81.4572 269° West 424 488 36,000  Level Indianapolis Center
Mon 10:26:35 AM 40.1661 -81.5983 275° West 424 488 36,000  Level Indianapolis Center
Mon 10:27:35 AM 40.1772 -81.7775 271° West 436 502 36,000  Level Indianapolis Center
Mon 10:28:35 AM 40.1792 -81.9161 272° West 443 510 36,000  Level Indianapolis Center
Mon 10:29:35 AM 40.1833 -82.0761 272° West 436 502 36,000  Level Indianapolis Center
Mon 10:30:35 AM 40.1875 -82.2311 273° West 436 502 36,000  Level Indianapolis Center
Mon 10:31:35 AM 40.1931 -82.3858 272° West 436 502 36,000  Level Indianapolis Center
Mon 10:32:35 AM 40.1967 -82.5406 272° West 431 496 36,000  Level Indianapolis Center
Mon 10:33:35 AM 40.2000 -82.6900 272° West 419 482 36,000  Level Indianapolis Center
Mon 10:34:35 AM 40.2031 -82.8450 272° West 419 482 36,000  Level Indianapolis Center
Mon 10:35:35 AM 40.2081 -83.0106 272° West 419 482 36,000  Level Indianapolis Center
Mon 10:36:35 AM 40.2128 -83.1656 271° West 424 488 36,000  Level Indianapolis Center
Mon 10:37:35 AM 40.2153 -83.3206 271° West 424 488 36,000  Level Indianapolis Center
Mon 10:38:35 AM 40.2178 -83.4728 272° West 424 488 36,000  Level Indianapolis Center
Mon 10:39:35 AM 40.2219 -83.6222 271° West 418 481 36,000  Level Indianapolis Center
Mon 10:40:35 AM 40.2239 -83.7744 270° West 418 481 36,000  Level Indianapolis Center
Mon 10:41:35 AM 40.2233 -83.9267 267° West 424 488 36,000  Level Indianapolis Center
Mon 10:42:35 AM 40.2167 -84.0761 268° West 418 481 36,000  Level Indianapolis Center
Mon 10:43:35 AM 40.2117 -84.2311 269° West 423 487 36,000  Level Indianapolis Center
Mon 10:44:35 AM 40.2086 -84.3833 268° West 423 487 36,000  Level Indianapolis Center
Mon 10:45:35 AM 40.2053 -84.5356 268° West 418 481 36,000  Level Indianapolis Center
Mon 10:46:35 AM 40.2019 -84.6850 267° West 423 487 36,000  Level Indianapolis Center
Mon 10:47:35 AM 40.1961 -84.8369 269° West 418 481 36,000  Level Indianapolis Center
Mon 10:49:51 AM 40.1892 -85.1722 268° West 414 476 36,000  Level Chicago Center
Mon 10:50:51 AM 40.1842 -85.3222 268° West 414 476 36,000  Level Chicago Center
Mon 10:51:51 AM 40.1803 -85.4556 267° West 414 476 36,000  Level Chicago Center
Mon 10:52:51 AM 40.1750 -85.6081 268° West 414 476 36,000  Level Chicago Center
Mon 10:53:51 AM 40.1717 -85.7578 268° West 414 476 36,000  Level Chicago Center
Mon 10:54:51 AM 40.1678 -85.9075 266° West 414 476 36,000  Level Chicago Center
Mon 10:55:51 AM 40.1600 -86.0628 267° West 427 491 36,000  Level Chicago Center
Mon 10:56:51 AM 40.1539 -86.2178 268° West 427 491 36,000  Level Chicago Center
Mon 10:57:51 AM 40.1497 -86.3756 266° West 427 491 36,000  Level Chicago Center
Mon 10:58:51 AM 40.1411 -86.5281 267° West 427 491 36,000  Level Chicago Center
Mon 10:59:51 AM 40.1344 -86.6778 267° West 420 483 36,000  Level Chicago Center
Mon 11:00:51 AM 40.1275 -86.8300 267° West 426 490 36,000  Level Chicago Center
Mon 11:01:51 AM 40.1203 -86.9825 266° West 421 484 36,000  Level Chicago Center
Mon 11:02:51 AM 40.1128 -87.1294 266° West 421 484 36,000  Level Chicago Center
Mon 11:03:51 AM 40.1033 -87.2897 266° West 416 479 36,000  Level Chicago Center
Mon 11:04:51 AM 40.0956 -87.4419 267° West 416 479 36,000  Level Chicago Center
Mon 11:06:48 AM 40.0847 -87.7172 266° West 408 470 36,000  Level Kansas City Center
Mon 11:07:48 AM 40.0761 -87.8619 266° West 408 470 36,000  Level Kansas City Center
Mon 11:08:48 AM 40.0675 -88.0064 266° West 403 464 36,000  Level Kansas City Center
Mon 11:09:48 AM 40.0586 -88.1536 266° West 408 470 36,000 50 Level Kansas City Center
Mon 11:10:48 AM 40.0517 -88.2981 265° West 408 470 36,100 400 Climbing Kansas City Center
Mon 11:11:48 AM 40.0425 -88.4453 265° West 408 470 36,800 650 Climbing Kansas City Center
Mon 11:12:48 AM 40.0331 -88.5897 265° West 408 470 37,400 550 Climbing Kansas City Center
Mon 11:13:48 AM 40.0233 -88.7342 265° West 408 470 37,900 300 Climbing Kansas City Center
Mon 11:14:48 AM 40.0150 -88.8650 265° West 408 470 38,000 50 Climbing Kansas City Center
Mon 11:15:48 AM 40.0053 -89.0119 266° West 408 470 38,000  Level Kansas City Center
Mon 11:16:48 AM 39.9972 -89.1589 265° West 413 475 38,000  Level Kansas City Center
Mon 11:17:48 AM 39.9869 -89.3033 265° West 408 470 38,000  Level Kansas City Center
Mon 11:18:48 AM 39.9783 -89.4447 265° West 403 464 38,000  Level Kansas City Center
Mon 11:19:48 AM 39.9678 -89.5892 265° West 403 464 38,000  Level Kansas City Center
Mon 11:20:48 AM 39.9589 -89.7278 265° West 403 464 38,000  Level Kansas City Center
Mon 11:21:48 AM 39.9497 -89.8692 264° West 403 464 38,000  Level Kansas City Center
Mon 11:22:48 AM 39.9383 -90.0108 265° West 403 464 38,000  Level Kansas City Center
Mon 11:23:48 AM 39.9289 -90.1494 264° West 398 458 38,000  Level Kansas City Center
Mon 11:24:48 AM 39.9172 -90.2881 264° West 398 458 38,000  Level Kansas City Center
Mon 11:25:48 AM 39.9053 -90.4267 265° West 393 452 38,000  Level Kansas City Center
Mon 11:26:48 AM 39.8956 -90.5681 266° West 388 447 38,000  Level Kansas City Center
Mon 11:27:48 AM 39.8875 -90.7089 263° West 393 452 38,000  Level Kansas City Center
Mon 11:28:48 AM 39.8753 -90.8475 264° West 393 452 38,000  Level Kansas City Center
Mon 11:29:48 AM 39.8647 -90.9861 263° West 388 447 38,000  Level Kansas City Center
Mon 11:30:48 AM 39.8522 -91.1272 265° West 394 453 38,000  Level Kansas City Center
Mon 11:31:48 AM 39.8436 -91.2656 261° West 394 453 38,000  Level Kansas City Center
Mon 11:32:48 AM 39.8264 -91.4122 266° West 399 459 38,000  Level Kansas City Center
Mon 11:33:48 AM 39.8197 -91.5503 262° West 399 459 38,000  Level Kansas City Center
Mon 11:34:48 AM 39.8042 -91.6942 264° West 399 459 38,000  Level Kansas City Center
Mon 11:35:48 AM 39.7931 -91.8350 264° West 399 459 38,000  Level Kansas City Center
Mon 11:36:48 AM 39.7814 -91.9703 264° West 394 453 38,000  Level Kansas City Center
Mon 11:37:48 AM 39.7697 -92.1111 262° West 394 453 38,000  Level Kansas City Center
Mon 11:38:48 AM 39.7556 -92.2494 264° West 389 448 38,000  Level Kansas City Center
Mon 11:39:48 AM 39.7436 -92.3900 263° West 389 448 38,000  Level Kansas City Center
Mon 11:40:48 AM 39.7314 -92.5253 262° West 389 448 38,000  Level Kansas City Center
Mon 11:41:48 AM 39.7169 -92.6608 263° West 389 448 38,000  Level Kansas City Center
Mon 11:42:48 AM 39.7042 -92.8011 263° West 389 448 38,000  Level Kansas City Center
Mon 11:43:48 AM 39.6917 -92.9392 262° West 389 448 38,000  Level Kansas City Center
Mon 11:44:48 AM 39.6767 -93.0769 264° West 389 448 38,000  Level Kansas City Center
Mon 11:45:48 AM 39.6658 -93.2172 261° West 389 448 38,000  Level Kansas City Center
Mon 11:46:48 AM 39.6483 -93.3525 263° West 389 448 38,000  Level Kansas City Center
Mon 11:47:48 AM 39.6350 -93.4956 263° West 389 448 38,000  Level Kansas City Center
Mon 11:48:48 AM 39.6217 -93.6303 262° West 389 448 38,000  Level Kansas City Center
Mon 11:49:48 AM 39.6058 -93.7786 262° West 389 448 38,000  Level Kansas City Center
Mon 11:50:48 AM 39.5900 -93.9189 263° West 389 448 38,000  Level Kansas City Center
Mon 11:51:48 AM 39.5781 -94.0428 262° West 389 448 38,000  Level Kansas City Center
Mon 11:54:48 AM 39.5311 -94.4683 261° West 389 448 38,000  Level Kansas City Center
Mon 11:55:48 AM 39.5164 -94.5947 262° West 395 455 38,000  Level Kansas City Center
Mon 11:56:48 AM 39.4994 -94.7481 261° West 395 455 38,000  Level Kansas City Center
Mon 11:57:48 AM 39.4825 -94.8850 262° West 390 449 38,000  Level Kansas City Center
Mon 11:58:48 AM 39.4694 -95.0086 262° West 395 455 38,000  Level Kansas City Center
Mon 11:59:48 AM 39.4519 -95.1672 261° West 402 463 38,000  Level Kansas City Center
Mon 12:00:48 PM 39.4344 -95.3094 262° West 409 471 38,000  Level Kansas City Center
Mon 12:01:48 PM 39.4189 -95.4489 262° West 409 471 38,000  Level Kansas City Center
Mon 12:02:48 PM 39.4033 -95.5831 260° West 414 476 38,000  Level Kansas City Center
Mon 12:03:48 PM 39.3831 -95.7386 262° West 409 471 38,000  Level Kansas City Center
Mon 12:04:48 PM 39.3669 -95.8806 261° West 409 471 38,000  Level Kansas City Center
Mon 12:05:48 PM 39.3508 -96.0089 260° West 409 471 38,000  Level Kansas City Center
Mon 12:06:48 PM 39.3300 -96.1617 260° West 400 460 38,000  Level Kansas City Center
Mon 12:07:48 PM 39.3136 -96.2872 261° West 394 453 38,000  Level Kansas City Center
Mon 12:08:48 PM 39.2944 -96.4397 261° West 394 453 38,000  Level Kansas City Center
Mon 12:09:48 PM 39.2775 -96.5786 261° West 394 453 38,000  Level Kansas City Center
Mon 12:10:48 PM 39.2606 -96.7203 259° West 399 459 38,000  Level Kansas City Center
Mon 12:11:48 PM 39.2389 -96.8669 262° West 416 479 38,000  Level Kansas City Center
Mon 12:12:48 PM 39.2236 -97.0086 260° West 411 473 38,000  Level Kansas City Center
Mon 12:13:48 PM 39.2061 -97.1364 258° West 404 465 38,000  Level Kansas City Center
Mon 12:14:48 PM 39.1822 -97.2803 261° West 409 471 38,000  Level Kansas City Center
Mon 12:15:48 PM 39.1617 -97.4428 260° West 414 476 38,000  Level Kansas City Center
Mon 12:16:48 PM 39.1411 -97.5892 260° West 414 476 38,000  Level Kansas City Center
Mon 12:17:48 PM 39.1233 -97.7169 260° West 414 476 38,000  Level Kansas City Center
Mon 12:18:48 PM 39.1025 -97.8631 259° West 414 476 38,000  Level Kansas City Center
Mon 12:19:48 PM 39.0792 -98.0225 260° West 414 476 38,000  Level Kansas City Center
Mon 12:20:48 PM 39.0608 -98.1525 259° West 409 471 38,000  Level Kansas City Center
Mon 12:21:48 PM 39.0369 -98.3117 260° West 420 483 38,000  Level Kansas City Center
Mon 12:22:48 PM 39.0156 -98.4603 260° West 420 483 38,000  Level Kansas City Center
Mon 12:24:48 PM 38.9744 -98.7464 259° West 420 483 38,000  Level Kansas City Center
Mon 12:25:48 PM 38.9525 -98.8919 259° West 420 483 38,000  Level Kansas City Center
Mon 12:26:48 PM 38.9306 -99.0375 259° West 420 483 38,000  Level Kansas City Center
Mon 12:27:48 PM 38.9081 -99.1856 258° West 425 489 38,000  Level Kansas City Center
Mon 12:28:48 PM 38.8833 -99.3361 259° West 425 489 38,000  Level Kansas City Center
Mon 12:29:48 PM 38.8608 -99.4786 258° West 425 489 38,000  Level Kansas City Center
Mon 12:32:17 PM 38.8011 -99.8408 258° West 423 487 38,000  Level Denver Center
Mon 12:33:17 PM 38.7778 -99.9817 260° West 423 487 38,000  Level Denver Center
Mon 12:34:17 PM 38.7603 -100.1136 257° West 423 487 38,000  Level Denver Center
Mon 12:35:17 PM 38.7347 -100.2544 259° West 418 481 38,000  Level Denver Center
Mon 12:36:17 PM 38.7097 -100.4139 258° West 418 481 38,000  Level Denver Center
Mon 12:37:17 PM 38.6858 -100.5542 258° West 418 481 38,000  Level Denver Center
Mon 12:38:17 PM 38.6636 -100.6892 257° West 423 487 38,000  Level Denver Center
Mon 12:39:17 PM 38.6358 -100.8456 259° West 423 487 38,000  Level Denver Center
Mon 12:40:17 PM 38.6136 -100.9883 257° West 423 487 38,000  Level Denver Center
Mon 12:41:17 PM 38.5872 -101.1367 257° West 423 487 38,000  Level Denver Center
Mon 12:42:17 PM 38.5642 -101.2686 258° West 423 487 38,000  Level Denver Center
Mon 12:43:17 PM 38.5381 -101.4269 256° West 416 479 38,000  Level Denver Center
Mon 12:44:17 PM 38.5108 -101.5697 259° West 421 484 38,000  Level Denver Center
Mon 12:45:17 PM 38.4894 -101.7039 256° West 421 484 38,000  Level Denver Center
Mon 12:46:17 PM 38.4619 -101.8464 257° West 421 484 38,000  Level Denver Center
Mon 12:47:17 PM 38.4328 -102.0100 257° West 421 484 38,000  Level Denver Center
Mon 12:48:17 PM 38.4072 -102.1519 257° West 421 484 38,000  Level Denver Center
Mon 12:49:17 PM 38.3847 -102.2806 258° West 416 479 38,000  Level Denver Center
Mon 12:50:17 PM 38.3572 -102.4383 257° West 422 486 38,000  Level Denver Center
Mon 12:51:17 PM 38.3308 -102.5828 255° West 422 486 38,000  Level Denver Center
Mon 12:52:17 PM 38.3003 -102.7300 259° West 422 486 38,000  Level Denver Center
Mon 12:53:17 PM 38.2794 -102.8606 255° West 427 491 38,000  Level Denver Center
Mon 12:54:17 PM 38.2469 -103.0183 256° West 421 484 38,000  Level Denver Center
Mon 12:55:17 PM 38.2214 -103.1492 256° West 421 484 38,000  Level Denver Center
Mon 12:56:17 PM 38.1906 -103.3064 256° West 421 484 38,000  Level Denver Center
Mon 12:57:17 PM 38.1631 -103.4500 257° West 421 484 38,000  Level Denver Center
Mon 12:58:17 PM 38.1394 -103.5778 256° West 416 479 38,000  Level Denver Center
Mon 12:59:17 PM 38.1097 -103.7242 257° West 421 484 38,000  Level Denver Center
Mon 01:00:17 PM 38.0800 -103.8836 255° West 426 490 38,000 50 Level Denver Center
Mon 01:01:17 PM 38.0497 -104.0269 256° West 421 484 38,100 500 Climbing Denver Center
Mon 01:02:17 PM 38.0253 -104.1542 256° West 421 484 39,000 700 Climbing Denver Center
Mon 01:03:17 PM 37.9931 -104.3133 255° West 421 484 39,500 400 Climbing Denver Center
Mon 01:04:17 PM 37.9642 -104.4539 255° West 421 484 39,800 250 Climbing Denver Center
Mon 01:05:17 PM 37.9372 -104.5836 255° West 421 484 40,000 100 Climbing Denver Center
Mon 01:06:17 PM 37.9064 -104.7342 256° West 427 491 40,000  Level Denver Center
Mon 01:07:17 PM 37.8753 -104.8928 254° West 427 491 40,000  Level Denver Center
Mon 01:08:17 PM 37.8439 -105.0353 255° West 427 491 40,000  Level Denver Center
Mon 01:09:17 PM 37.8161 -105.1647 256° West 427 491 40,000  Level Denver Center
Mon 01:10:17 PM 37.7844 -105.3253 253° West 432 497 40,000  Level Denver Center
Mon 01:11:17 PM 37.7506 -105.4678 257° West 437 503 40,000  Level Denver Center
Mon 01:12:17 PM 37.7225 -105.6178 254° West 437 503 40,000  Level Denver Center
Mon 01:13:17 PM 37.6942 -105.7464 253° West 432 497 40,000  Level Denver Center
Mon 01:14:17 PM 37.6556 -105.9067 256° West 438 504 40,000  Level Denver Center
Mon 01:15:17 PM 37.6269 -106.0511 254° West 438 504 40,000  Level Denver Center
Mon 01:16:17 PM 37.5961 -106.1822 256° West 433 498 40,000  Level Denver Center
Mon 01:17:17 PM 37.5672 -106.3239 256° West 439 505 40,000  Level Denver Center
Mon 01:18:17 PM 37.5339 -106.4861 254° West 430 495 40,000  Level Denver Center
Mon 01:19:17 PM 37.5003 -106.6300 254° West 430 495 40,000  Level Denver Center
Mon 01:20:17 PM 37.4708 -106.7606 253° West 435 501 40,000  Level Denver Center
Mon 01:21:17 PM 37.4350 -106.9067 254° West 435 501 40,000  Level Denver Center
Mon 01:22:17 PM 37.3969 -107.0686 255° West 435 501 40,000  Level Denver Center
Mon 01:23:17 PM 37.3667 -107.2144 253° West 435 501 40,000  Level Denver Center
Mon 01:24:17 PM 37.3344 -107.3447 254° West 435 501 40,000  Level Denver Center
Mon 01:25:17 PM 37.3022 -107.4878 255° West 435 501 40,000  Level Denver Center
Mon 01:26:17 PM 37.2672 -107.6461 252° West 435 501 40,000  Level Denver Center
Mon 01:27:17 PM 37.2303 -107.7864 255° West 435 501 40,000  Level Denver Center
Mon 01:28:17 PM 37.2017 -107.9186 254° West 435 501 40,000  Level Denver Center
Mon 01:29:17 PM 37.1639 -108.0794 252° West 440 506 40,000  Level Denver Center
Mon 01:30:17 PM 37.1286 -108.2192 254° West 435 501 40,000  Level Denver Center
Mon 01:31:17 PM 37.0947 -108.3692 252° West 440 506 40,000  Level Denver Center
Mon 01:32:17 PM 37.0614 -108.5008 254° West 440 506 40,000  Level Denver Center
Mon 01:33:17 PM 37.0228 -108.6661 252° West 440 506 40,000  Level Denver Center
Mon 01:34:17 PM 36.9844 -108.8131 253° West 446 513 40,000  Level Denver Center
Mon 01:35:17 PM 36.9503 -108.9497 253° West 451 519 40,000  Level Denver Center
Mon 01:36:17 PM 36.9136 -109.1014 253° West 458 527 40,000  Level Denver Center
Mon 01:37:17 PM 36.8719 -109.2686 252° West 458 527 40,000  Level Denver Center
Mon 01:38:17 PM 36.8328 -109.4175 252° West 458 527 40,000  Level Denver Center
Mon 01:39:17 PM 36.7981 -109.5533 252° West 458 527 40,000  Level Denver Center
Mon 01:40:17 PM 36.7558 -109.7197 252° West 458 527 40,000  Level Denver Center
Mon 01:41:17 PM 36.7158 -109.8708 252° West 450 518 40,000  Level Denver Center
Mon 01:42:17 PM 36.6781 -110.0192 249° West 456 525 40,000  Level Denver Center
Mon 01:43:17 PM 36.6336 -110.1669 252° West 456 525 40,000  Level Denver Center
Mon 01:44:17 PM 36.5953 -110.3175 251° West 456 525 40,000  Level Denver Center
Mon 01:45:17 PM 36.5525 -110.4700 253° West 461 531 40,000  Level Denver Center
Mon 01:46:17 PM 36.5158 -110.6206 252° West 461 531 40,000  Level Denver Center
Mon 01:47:17 PM 36.4794 -110.7578 252° West 461 531 40,000  Level Denver Center
Mon 01:48:17 PM 36.4403 -110.9075 252° West 461 531 40,000  Level Denver Center
Mon 01:50:18 PM 36.3614 -111.2114 251° West 462 532 40,000  Level Los Angeles Center
Mon 01:51:18 PM 36.3194 -111.3636 251° West 467 537 40,000  Level Los Angeles Center
Mon 01:52:19 PM 36.2772 -111.5156 252° West 467 537 40,000  Level Los Angeles Center
Mon 01:53:18 PM 36.2333 -111.6828 251° West 472 543 40,000  Level Los Angeles Center
Mon 01:54:18 PM 36.1908 -111.8344 252° West 472 543 40,000  Level Los Angeles Center
Mon 01:55:18 PM 36.1503 -111.9883 250° West 472 543 40,000  Level Los Angeles Center
Mon 01:56:18 PM 36.1072 -112.1369 251° West 472 543 40,000  Level Los Angeles Center
Mon 01:57:18 PM 36.0642 -112.2908 250° West 472 543 40,000  Level Los Angeles Center
Mon 01:58:18 PM 36.0244 -112.4236 250° West 472 543 40,000  Level Los Angeles Center
Mon 01:59:18 PM 35.9811 -112.5744 251° West 472 543 40,000  Level Los Angeles Center
Mon 02:00:18 PM 35.9356 -112.7406 251° West 472 543 40,000  Level Los Angeles Center
Mon 02:01:18 PM 35.8939 -112.8911 250° West 472 543 40,000  Level Los Angeles Center
Mon 02:02:18 PM 35.8478 -113.0442 251° West 472 543 40,000  Level Los Angeles Center
Mon 02:03:18 PM 35.8056 -113.1967 250° West 472 543 40,000  Level Los Angeles Center
Mon 02:04:18 PM 35.7611 -113.3442 250° West 472 543 40,000  Level Los Angeles Center
Mon 02:05:18 PM 35.7164 -113.4967 250° West 472 543 40,000 -300 Level Los Angeles Center
Mon 02:06:18 PM 35.6756 -113.6336 250° West 472 543 39,400 -800 Descending Los Angeles Center
Mon 02:07:18 PM 35.6306 -113.7831 250° West 472 543 38,400 -1,000 Descending Los Angeles Center
Mon 02:08:18 PM 35.5853 -113.9350 250° West 472 543 37,400 -1,000 Descending Los Angeles Center
Mon 02:09:18 PM 35.5419 -114.0817 250° West 472 543 36,400 -700 Descending Los Angeles Center
Mon 02:10:18 PM 35.4964 -114.2333 250° West 472 543 36,000 -400 Descending Los Angeles Center
Mon 02:11:18 PM 35.4525 -114.3772 250° West 472 543 35,600 -700 Descending Los Angeles Center
Mon 02:12:18 PM 35.4067 -114.5311 249° West 472 543 34,600 -750 Descending Los Angeles Center
Mon 02:13:18 PM 35.3586 -114.6822 250° West 477 549 34,100 -300 Descending Los Angeles Center
Mon 02:14:18 PM 35.3122 -114.8383 248° West 477 549 34,000 -50 Descending Los Angeles Center
Mon 02:15:18 PM 35.2617 -114.9944 249° West 477 549 34,000  Level Los Angeles Center
Mon 02:16:18 PM 35.2150 -115.1450 247° West 477 549 34,000  Level Los Angeles Center
Mon 02:17:18 PM 35.1578 -115.3133 249° West 482 555 34,000  Level Los Angeles Center
Mon 02:18:18 PM 35.1086 -115.4686 250° West 487 560 34,000  Level Los Angeles Center
Mon 02:19:18 PM 35.0614 -115.6239 248° West 487 560 34,000  Level Los Angeles Center
Mon 02:20:18 PM 35.0117 -115.7739 250° West 487 560 34,000 -500 Level Los Angeles Center
Mon 02:21:18 PM 34.9661 -115.9236 249° West 487 560 33,000 -1,750 Descending Los Angeles Center
Mon 02:22:18 PM 34.9183 -116.0781 249° West 487 560 30,500 -2,500 Descending Los Angeles Center
Mon 02:23:18 PM 34.8703 -116.2328 247° West 492 566 28,000 -2,650 Descending Los Angeles Center
Mon 02:24:18 PM 34.8178 -116.3819 257° West 492 566 25,200 -2,350 Descending Los Angeles Center
Mon 02:25:18 PM 34.7883 -116.5361 262° West 487 560 23,300 -1,100 Descending Los Angeles Center
Mon 02:26:18 PM 34.7708 -116.6928 263° West 475 547 23,000 -200 Descending Los Angeles Center
Mon 02:27:18 PM 34.7556 -116.8544 262° West 475 547 22,900 -450 Descending Los Angeles Center
Mon 02:28:18 PM 34.7378 -117.0136 264° West 480 552 22,100 -450 Descending Los Angeles Center
Mon 02:29:18 PM 34.7239 -117.1725 262° West 480 552 22,000 -550 Descending Los Angeles Center
Mon 02:30:18 PM 34.7078 -117.3189 263° West 473 544 21,000 -1,050 Descending Los Angeles Center
Mon 02:31:18 PM 34.6939 -117.4603 261° West 445 512 19,900 -1,550 Descending Los Angeles Center
Mon 02:32:18 PM 34.6756 -117.6039 261° West 439 505 17,900 -1,750 Descending Los Angeles Center
Mon 02:33:18 PM 34.6594 -117.7250 259° West 427 491 16,400 -1,750 Descending Los Angeles Center
Mon 02:34:18 PM 34.6389 -117.8583 261° West 416 479 14,400 -1,377 Descending Los Angeles Center
Mon 02:39:24 PM 34.5667 -118.3833 244° Southwest 263 303 8,000 -1,082 Descending Southern California TRACON
Mon 02:40:24 PM 34.5333 -118.4667 212° Southwest 276 318 7,800 -857 Descending Southern California TRACON
Mon 02:41:30 PM 34.4667 -118.5167 212° Southwest 269 310 6,200 -1,333 Descending Southern California TRACON
Mon 02:42:30 PM 34.4000 -118.5667 202° Southwest 261 300 5,000 -595 Descending Southern California TRACON
Mon 02:43:31 PM 34.3333 -118.6000 220° Southwest 262 302 5,000  Level Southern California TRACON
Mon 02:44:31 PM 34.2833 -118.6500 168° South 249 287 5,000 -350 Level Southern California TRACON
Mon 02:45:31 PM 34.2167 -118.6333 107° East 249 287 4,300 -893 Descending Southern California TRACON
Mon 02:46:32 PM 34.2000 -118.5667 90° East 213 245 3,200 -744 Descending Southern California TRACON
Mon 02:47:32 PM 34.2000 -118.5000 90° East 178 205 2,800 -632 Descending Southern California TRACON
Mon 02:48:26 PM 34.2000 -118.4500 90° East 165 190 2,000 -850 Descending Southern California TRACON
Mon 02:49:32 PM 34.2000 -118.3833 90° East 141 162 1,100 -818 Descending Southern California TRACON

Login

Don't have an account? Register now (free) for customized features, flight alerts, and more!